sensor_id;sensor_type;location;lat;lon;timestamp;temperature;humidity
59303;DHT22;45074;52.764;6.896;2022-07-04T00:00:28;15.20;99.90
59303;DHT22;45074;52.764;6.896;2022-07-04T00:02:54;15.80;99.90
59303;DHT22;45074;52.764;6.896;2022-07-04T00:05:20;16.80;99.90
59303;DHT22;45074;52.764;6.896;2022-07-04T00:07:47;15.10;99.90
59303;DHT22;45074;52.764;6.896;2022-07-04T00:10:17;15.10;99.90
59303;DHT22;45074;52.764;6.896;2022-07-04T00:12:44;15.80;99.90
59303;DHT22;45074;52.764;6.896;2022-07-04T00:15:11;15.00;99.90
59303;DHT22;45074;52.764;6.896;2022-07-04T00:17:37;14.90;99.90
59303;DHT22;45074;52.764;6.896;2022-07-04T00:20:04;14.60;99.90
59303;DHT22;45074;52.764;6.896;2022-07-04T00:22:30;15.30;99.90
59303;DHT22;45074;52.764;6.896;2022-07-04T00:24:56;15.30;99.90
59303;DHT22;45074;52.764;6.896;2022-07-04T00:27:22;14.90;99.90
59303;DHT22;45074;52.764;6.896;2022-07-04T00:29:47;15.30;99.90
59303;DHT22;45074;52.764;6.896;2022-07-04T00:32:13;14.70;99.90
59303;DHT22;45074;52.764;6.896;2022-07-04T00:34:39;15.00;99.90
59303;DHT22;45074;52.764;6.896;2022-07-04T00:37:05;15.20;99.90
59303;DHT22;45074;52.764;6.896;2022-07-04T00:39:30;13.20;99.90
59303;DHT22;45074;52.764;6.896;2022-07-04T00:41:56;14.80;99.90
59303;DHT22;45074;52.764;6.896;2022-07-04T00:44:22;13.10;99.90
59303;DHT22;45074;52.764;6.896;2022-07-04T00:49:15;14.80;99.90
59303;DHT22;45074;52.764;6.896;2022-07-04T00:51:42;14.60;99.90
59303;DHT22;45074;52.764;6.896;2022-07-04T00:54:10;14.60;99.90
59303;DHT22;45074;52.764;6.896;2022-07-04T00:56:36;15.00;99.90
59303;DHT22;45074;52.764;6.896;2022-07-04T01:01:28;15.10;99.90
59303;DHT22;45074;52.764;6.896;2022-07-04T01:03:55;16.10;99.90
59303;DHT22;45074;52.764;6.896;2022-07-04T01:06:21;14.10;99.90
59303;DHT22;45074;52.764;6.896;2022-07-04T01:08:46;14.10;99.90
59303;DHT22;45074;52.764;6.896;2022-07-04T01:11:13;14.70;99.90
59303;DHT22;45074;52.764;6.896;2022-07-04T01:13:39;14.70;99.90
59303;DHT22;45074;52.764;6.896;2022-07-04T01:16:12;15.60;99.90
59303;DHT22;45074;52.764;6.896;2022-07-04T01:18:38;15.40;99.90
59303;DHT22;45074;52.764;6.896;2022-07-04T01:21:05;14.30;99.90
59303;DHT22;45074;52.764;6.896;2022-07-04T01:23:31;14.40;99.90
59303;DHT22;45074;52.764;6.896;2022-07-04T01:25:57;14.40;99.90
59303;DHT22;45074;52.764;6.896;2022-07-04T01:28:24;14.30;99.90
59303;DHT22;45074;52.764;6.896;2022-07-04T01:30:50;14.30;99.90
59303;DHT22;45074;52.764;6.896;2022-07-04T01:33:16;14.20;99.90
59303;DHT22;45074;52.764;6.896;2022-07-04T01:35:45;12.10;99.90
59303;DHT22;45074;52.764;6.896;2022-07-04T01:38:11;15.10;99.90
59303;DHT22;45074;52.764;6.896;2022-07-04T01:40:37;14.00;99.90
59303;DHT22;45074;52.764;6.896;2022-07-04T01:43:02;14.10;99.90
59303;DHT22;45074;52.764;6.896;2022-07-04T01:45:28;13.40;99.90
59303;DHT22;45074;52.764;6.896;2022-07-04T01:47:54;14.10;99.90
59303;DHT22;45074;52.764;6.896;2022-07-04T01:50:20;14.30;99.90
59303;DHT22;45074;52.764;6.896;2022-07-04T01:52:46;14.30;99.90
59303;DHT22;45074;52.764;6.896;2022-07-04T01:55:12;14.40;99.90
59303;DHT22;45074;52.764;6.896;2022-07-04T01:57:38;14.40;99.90
59303;DHT22;45074;52.764;6.896;2022-07-04T02:00:08;14.00;99.90
59303;DHT22;45074;52.764;6.896;2022-07-04T02:02:53;14.30;99.90
59303;DHT22;45074;52.764;6.896;2022-07-04T02:05:18;14.00;99.90
59303;DHT22;45074;52.764;6.896;2022-07-04T02:07:44;14.50;99.90
59303;DHT22;45074;52.764;6.896;2022-07-04T02:10:10;14.50;99.90
59303;DHT22;45074;52.764;6.896;2022-07-04T02:12:36;13.90;99.90
59303;DHT22;45074;52.764;6.896;2022-07-04T02:15:21;14.00;99.90
59303;DHT22;45074;52.764;6.896;2022-07-04T02:17:47;13.90;99.90
59303;DHT22;45074;52.764;6.896;2022-07-04T02:20:13;13.90;99.90
59303;DHT22;45074;52.764;6.896;2022-07-04T02:22:39;15.60;99.90
59303;DHT22;45074;52.764;6.896;2022-07-04T02:25:05;12.80;99.90
59303;DHT22;45074;52.764;6.896;2022-07-04T02:27:31;14.10;99.90
59303;DHT22;45074;52.764;6.896;2022-07-04T02:32:23;13.70;99.90
59303;DHT22;45074;52.764;6.896;2022-07-04T02:39:41;14.00;99.90
59303;DHT22;45074;52.764;6.896;2022-07-04T02:42:07;14.40;99.90
59303;DHT22;45074;52.764;6.896;2022-07-04T02:44:33;13.80;99.90
59303;DHT22;45074;52.764;6.896;2022-07-04T02:46:59;15.00;99.90
59303;DHT22;45074;52.764;6.896;2022-07-04T02:49:26;13.50;99.90
59303;DHT22;45074;52.764;6.896;2022-07-04T02:51:51;14.00;99.90
59303;DHT22;45074;52.764;6.896;2022-07-04T02:54:17;13.60;99.90
59303;DHT22;45074;52.764;6.896;2022-07-04T02:59:09;13.50;99.90
59303;DHT22;45074;52.764;6.896;2022-07-04T03:01:34;12.40;99.90
59303;DHT22;45074;52.764;6.896;2022-07-04T03:04:00;11.90;99.90
59303;DHT22;45074;52.764;6.896;2022-07-04T03:06:26;13.60;99.90
59303;DHT22;45074;52.764;6.896;2022-07-04T03:08:51;13.60;99.90
59303;DHT22;45074;52.764;6.896;2022-07-04T03:11:18;12.30;99.90
59303;DHT22;45074;52.764;6.896;2022-07-04T03:13:44;13.30;99.90
59303;DHT22;45074;52.764;6.896;2022-07-04T03:16:10;13.30;99.90
59303;DHT22;45074;52.764;6.896;2022-07-04T03:18:37;13.00;99.90
59303;DHT22;45074;52.764;6.896;2022-07-04T03:21:03;13.30;99.90
59303;DHT22;45074;52.764;6.896;2022-07-04T03:23:31;13.20;99.90
59303;DHT22;45074;52.764;6.896;2022-07-04T03:25:57;15.00;99.90
59303;DHT22;45074;52.764;6.896;2022-07-04T03:28:22;13.30;99.90
59303;DHT22;45074;52.764;6.896;2022-07-04T03:30:48;13.30;99.90
59303;DHT22;45074;52.764;6.896;2022-07-04T03:35:40;13.30;99.90
59303;DHT22;45074;52.764;6.896;2022-07-04T03:38:06;13.30;99.90
59303;DHT22;45074;52.764;6.896;2022-07-04T03:40:31;13.30;99.90
59303;DHT22;45074;52.764;6.896;2022-07-04T03:42:59;13.30;99.90
59303;DHT22;45074;52.764;6.896;2022-07-04T03:45:25;13.50;99.90
59303;DHT22;45074;52.764;6.896;2022-07-04T03:47:50;13.50;99.90
59303;DHT22;45074;52.764;6.896;2022-07-04T03:50:17;13.30;99.90
59303;DHT22;45074;52.764;6.896;2022-07-04T03:52:43;13.30;99.90
59303;DHT22;45074;52.764;6.896;2022-07-04T03:55:09;13.30;99.90
59303;DHT22;45074;52.764;6.896;2022-07-04T03:57:35;13.60;99.90
59303;DHT22;45074;52.764;6.896;2022-07-04T04:00:01;12.10;99.90
59303;DHT22;45074;52.764;6.896;2022-07-04T04:02:27;13.40;99.90
59303;DHT22;45074;52.764;6.896;2022-07-04T04:04:53;13.40;99.90
59303;DHT22;45074;52.764;6.896;2022-07-04T04:07:37;15.00;99.90
59303;DHT22;45074;52.764;6.896;2022-07-04T04:10:03;12.90;99.90
59303;DHT22;45074;52.764;6.896;2022-07-04T04:12:28;13.40;99.90
59303;DHT22;45074;52.764;6.896;2022-07-04T04:14:54;13.90;99.90
59303;DHT22;45074;52.764;6.896;2022-07-04T04:17:20;14.00;99.90
59303;DHT22;45074;52.764;6.896;2022-07-04T04:19:45;11.50;99.90
59303;DHT22;45074;52.764;6.896;2022-07-04T04:24:37;13.70;99.90
59303;DHT22;45074;52.764;6.896;2022-07-04T04:27:03;12.20;99.90
59303;DHT22;45074;52.764;6.896;2022-07-04T04:29:29;13.60;99.90
59303;DHT22;45074;52.764;6.896;2022-07-04T04:31:54;13.70;99.90
59303;DHT22;45074;52.764;6.896;2022-07-04T04:34:20;13.80;99.90
59303;DHT22;45074;52.764;6.896;2022-07-04T04:39:11;13.70;99.90
59303;DHT22;45074;52.764;6.896;2022-07-04T04:44:05;14.20;99.90
59303;DHT22;45074;52.764;6.896;2022-07-04T04:46:31;13.70;99.90
59303;DHT22;45074;52.764;6.896;2022-07-04T04:48:56;14.40;99.90
59303;DHT22;45074;52.764;6.896;2022-07-04T04:51:22;13.90;99.90
59303;DHT22;45074;52.764;6.896;2022-07-04T04:53:47;13.80;99.90
59303;DHT22;45074;52.764;6.896;2022-07-04T04:56:13;12.20;99.90
59303;DHT22;45074;52.764;6.896;2022-07-04T04:58:39;13.70;99.90
59303;DHT22;45074;52.764;6.896;2022-07-04T05:01:05;14.60;99.90
59303;DHT22;45074;52.764;6.896;2022-07-04T05:03:31;14.00;99.90
59303;DHT22;45074;52.764;6.896;2022-07-04T05:05:57;14.50;99.90
59303;DHT22;45074;52.764;6.896;2022-07-04T05:08:23;14.20;99.90
59303;DHT22;45074;52.764;6.896;2022-07-04T05:13:17;14.20;99.90
59303;DHT22;45074;52.764;6.896;2022-07-04T05:15:42;14.10;99.90
59303;DHT22;45074;52.764;6.896;2022-07-04T05:18:08;12.80;99.90
59303;DHT22;45074;52.764;6.896;2022-07-04T05:20:34;13.60;99.90
59303;DHT22;45074;52.764;6.896;2022-07-04T05:22:59;12.80;99.90
59303;DHT22;45074;52.764;6.896;2022-07-04T05:25:25;14.50;99.90
59303;DHT22;45074;52.764;6.896;2022-07-04T05:27:51;12.70;99.90
59303;DHT22;45074;52.764;6.896;2022-07-04T05:30:17;14.80;99.90
59303;DHT22;45074;52.764;6.896;2022-07-04T05:32:42;14.30;99.90
59303;DHT22;45074;52.764;6.896;2022-07-04T05:35:08;15.10;99.90
59303;DHT22;45074;52.764;6.896;2022-07-04T05:37:34;14.00;99.90
59303;DHT22;45074;52.764;6.896;2022-07-04T05:40:02;14.90;99.90
59303;DHT22;45074;52.764;6.896;2022-07-04T05:42:27;15.40;99.90
59303;DHT22;45074;52.764;6.896;2022-07-04T05:44:53;16.00;99.90
59303;DHT22;45074;52.764;6.896;2022-07-04T05:47:19;15.10;99.90
59303;DHT22;45074;52.764;6.896;2022-07-04T05:49:44;15.00;99.90
59303;DHT22;45074;52.764;6.896;2022-07-04T05:52:10;15.60;99.90
59303;DHT22;45074;52.764;6.896;2022-07-04T05:54:36;15.30;99.90
59303;DHT22;45074;52.764;6.896;2022-07-04T05:57:02;15.40;99.90
59303;DHT22;45074;52.764;6.896;2022-07-04T06:01:55;15.70;99.90
59303;DHT22;45074;52.764;6.896;2022-07-04T06:04:21;15.60;99.90
59303;DHT22;45074;52.764;6.896;2022-07-04T06:06:47;16.20;99.90
59303;DHT22;45074;52.764;6.896;2022-07-04T06:09:13;16.40;99.90
59303;DHT22;45074;52.764;6.896;2022-07-04T06:11:38;16.40;99.90
59303;DHT22;45074;52.764;6.896;2022-07-04T06:16:30;16.20;99.90
59303;DHT22;45074;52.764;6.896;2022-07-04T06:18:56;16.40;99.90
59303;DHT22;45074;52.764;6.896;2022-07-04T06:21:21;14.60;99.90
59303;DHT22;45074;52.764;6.896;2022-07-04T06:26:13;17.30;99.90
59303;DHT22;45074;52.764;6.896;2022-07-04T06:31:05;16.10;99.90
59303;DHT22;45074;52.764;6.896;2022-07-04T06:33:30;17.20;99.90
59303;DHT22;45074;52.764;6.896;2022-07-04T06:35:56;16.90;99.90
59303;DHT22;45074;52.764;6.896;2022-07-04T06:38:27;17.30;99.90
59303;DHT22;45074;52.764;6.896;2022-07-04T06:40:53;17.00;99.90
59303;DHT22;45074;52.764;6.896;2022-07-04T06:48:11;17.80;99.90
59303;DHT22;45074;52.764;6.896;2022-07-04T06:50:37;17.30;99.90
59303;DHT22;45074;52.764;6.896;2022-07-04T06:53:05;16.70;99.90
59303;DHT22;45074;52.764;6.896;2022-07-04T06:57:57;17.80;99.90
59303;DHT22;45074;52.764;6.896;2022-07-04T07:00:24;17.40;99.90
59303;DHT22;45074;52.764;6.896;2022-07-04T07:02:49;17.80;99.90
59303;DHT22;45074;52.764;6.896;2022-07-04T07:05:15;18.50;99.90
59303;DHT22;45074;52.764;6.896;2022-07-04T07:07:41;18.60;99.90
59303;DHT22;45074;52.764;6.896;2022-07-04T07:10:07;17.30;99.90
59303;DHT22;45074;52.764;6.896;2022-07-04T07:12:33;18.60;99.90
59303;DHT22;45074;52.764;6.896;2022-07-04T07:15:00;18.80;99.90
59303;DHT22;45074;52.764;6.896;2022-07-04T07:17:26;18.90;99.90
59303;DHT22;45074;52.764;6.896;2022-07-04T07:19:52;18.60;99.90
59303;DHT22;45074;52.764;6.896;2022-07-04T07:22:17;18.60;99.90
59303;DHT22;45074;52.764;6.896;2022-07-04T07:27:10;18.60;99.90
59303;DHT22;45074;52.764;6.896;2022-07-04T07:29:37;18.50;99.90
59303;DHT22;45074;52.764;6.896;2022-07-04T07:32:04;17.00;99.90
59303;DHT22;45074;52.764;6.896;2022-07-04T19:55:12;19.30;90.40
59303;DHT22;45074;52.764;6.896;2022-07-04T19:57:40;18.60;90.30
59303;DHT22;45074;52.764;6.896;2022-07-04T20:00:11;18.50;90.60
59303;DHT22;45074;52.764;6.896;2022-07-04T20:02:37;19.50;91.20
59303;DHT22;45074;52.764;6.896;2022-07-04T20:05:05;18.80;91.30
59303;DHT22;45074;52.764;6.896;2022-07-04T20:07:38;19.70;90.90
59303;DHT22;45074;52.764;6.896;2022-07-04T20:10:06;18.50;79.80
59303;DHT22;45074;52.764;6.896;2022-07-04T20:12:33;18.80;72.80
59303;DHT22;45074;52.764;6.896;2022-07-04T20:14:59;19.80;92.30
59303;DHT22;45074;52.764;6.896;2022-07-04T20:17:26;18.80;74.70
59303;DHT22;45074;52.764;6.896;2022-07-04T20:24:48;18.60;77.30
59303;DHT22;45074;52.764;6.896;2022-07-04T20:27:15;18.60;78.20
59303;DHT22;45074;52.764;6.896;2022-07-04T20:29:41;18.70;94.40
59303;DHT22;45074;52.764;6.896;2022-07-04T20:34:35;18.40;79.90
59303;DHT22;45074;52.764;6.896;2022-07-04T20:39:27;18.70;96.50
59303;DHT22;45074;52.764;6.896;2022-07-04T20:41:53;17.80;97.50
59303;DHT22;45074;52.764;6.896;2022-07-04T20:44:19;18.60;97.20
59303;DHT22;45074;52.764;6.896;2022-07-04T20:46:44;17.90;97.40
59303;DHT22;45074;52.764;6.896;2022-07-04T20:49:10;19.50;98.60
59303;DHT22;45074;52.764;6.896;2022-07-04T20:51:36;17.90;88.90
59303;DHT22;45074;52.764;6.896;2022-07-04T20:54:02;17.70;90.10
59303;DHT22;45074;52.764;6.896;2022-07-04T21:01:20;17.60;91.20
59303;DHT22;45074;52.764;6.896;2022-07-04T21:03:46;17.50;92.00
59303;DHT22;45074;52.764;6.896;2022-07-04T21:06:11;17.40;92.40
59303;DHT22;45074;52.764;6.896;2022-07-04T21:08:37;17.50;92.50
59303;DHT22;45074;52.764;6.896;2022-07-04T21:11:03;16.30;99.90
59303;DHT22;45074;52.764;6.896;2022-07-04T21:15:54;16.60;99.90
59303;DHT22;45074;52.764;6.896;2022-07-04T21:20:47;17.10;93.90
59303;DHT22;45074;52.764;6.896;2022-07-04T21:23:12;16.60;99.90
59303;DHT22;45074;52.764;6.896;2022-07-04T21:25:38;17.40;99.90
59303;DHT22;45074;52.764;6.896;2022-07-04T21:28:04;16.70;99.90
59303;DHT22;45074;52.764;6.896;2022-07-04T21:30:30;17.10;99.90
59303;DHT22;45074;52.764;6.896;2022-07-04T21:32:55;16.80;95.60
59303;DHT22;45074;52.764;6.896;2022-07-04T21:35:21;17.00;95.80
59303;DHT22;45074;52.764;6.896;2022-07-04T21:40:13;17.00;99.90
59303;DHT22;45074;52.764;6.896;2022-07-04T21:42:38;17.30;99.90
59303;DHT22;45074;52.764;6.896;2022-07-04T21:45:04;16.80;99.90
59303;DHT22;45074;52.764;6.896;2022-07-04T21:47:30;18.10;99.90
59303;DHT22;45074;52.764;6.896;2022-07-04T21:49:56;16.60;99.50
59303;DHT22;45074;52.764;6.896;2022-07-04T21:52:22;14.70;99.90
59303;DHT22;45074;52.764;6.896;2022-07-04T21:54:47;16.50;99.90
59303;DHT22;45074;52.764;6.896;2022-07-04T21:57:13;16.30;98.60
59303;DHT22;45074;52.764;6.896;2022-07-04T21:59:38;16.40;99.20
59303;DHT22;45074;52.764;6.896;2022-07-04T22:04:30;16.00;99.90
59303;DHT22;45074;52.764;6.896;2022-07-04T22:06:56;16.40;99.90
59303;DHT22;45074;52.764;6.896;2022-07-04T22:09:21;16.30;99.90
59303;DHT22;45074;52.764;6.896;2022-07-04T22:11:47;16.70;99.90
59303;DHT22;45074;52.764;6.896;2022-07-04T22:14:13;15.50;99.90
59303;DHT22;45074;52.764;6.896;2022-07-04T22:16:38;16.40;99.90
59303;DHT22;45074;52.764;6.896;2022-07-04T22:19:05;14.70;99.90
59303;DHT22;45074;52.764;6.896;2022-07-04T22:21:30;16.60;99.90
59303;DHT22;45074;52.764;6.896;2022-07-04T22:26:22;15.30;99.90
59303;DHT22;45074;52.764;6.896;2022-07-04T22:28:48;16.40;99.90
59303;DHT22;45074;52.764;6.896;2022-07-04T22:36:06;15.30;99.90
59303;DHT22;45074;52.764;6.896;2022-07-04T22:38:31;15.70;99.90
59303;DHT22;45074;52.764;6.896;2022-07-04T22:43:25;15.80;99.90
59303;DHT22;45074;52.764;6.896;2022-07-04T22:45:51;16.00;99.90
59303;DHT22;45074;52.764;6.896;2022-07-04T22:48:17;15.90;99.90
59303;DHT22;45074;52.764;6.896;2022-07-04T22:50:42;16.30;99.90
59303;DHT22;45074;52.764;6.896;2022-07-04T22:56:12;15.10;99.90
59303;DHT22;45074;52.764;6.896;2022-07-04T22:58:39;15.60;99.90
59303;DHT22;45074;52.764;6.896;2022-07-04T23:01:06;15.60;99.90
59303;DHT22;45074;52.764;6.896;2022-07-04T23:05:58;15.80;99.90
59303;DHT22;45074;52.764;6.896;2022-07-04T23:08:25;14.10;99.90
59303;DHT22;45074;52.764;6.896;2022-07-04T23:10:51;14.60;99.90
59303;DHT22;45074;52.764;6.896;2022-07-04T23:13:17;16.20;99.90
59303;DHT22;45074;52.764;6.896;2022-07-04T23:15:42;15.90;99.90
59303;DHT22;45074;52.764;6.896;2022-07-04T23:20:34;15.20;99.90
59303;DHT22;45074;52.764;6.896;2022-07-04T23:23:00;14.90;99.90
59303;DHT22;45074;52.764;6.896;2022-07-04T23:25:25;15.50;99.90
59303;DHT22;45074;52.764;6.896;2022-07-04T23:27:51;15.20;99.90
59303;DHT22;45074;52.764;6.896;2022-07-04T23:30:17;15.30;99.90
59303;DHT22;45074;52.764;6.896;2022-07-04T23:32:42;15.10;99.90
59303;DHT22;45074;52.764;6.896;2022-07-04T23:35:08;15.70;99.90
59303;DHT22;45074;52.764;6.896;2022-07-04T23:37:34;15.20;99.90
59303;DHT22;45074;52.764;6.896;2022-07-04T23:39:59;16.40;99.90
59303;DHT22;45074;52.764;6.896;2022-07-04T23:42:25;15.00;99.90
59303;DHT22;45074;52.764;6.896;2022-07-04T23:44:51;15.10;99.90
59303;DHT22;45074;52.764;6.896;2022-07-04T23:47:16;14.00;99.90
59303;DHT22;45074;52.764;6.896;2022-07-04T23:49:42;15.00;99.90
59303;DHT22;45074;52.764;6.896;2022-07-04T23:54:34;15.20;99.90
59303;DHT22;45074;52.764;6.896;2022-07-04T23:56:59;14.90;99.90
59303;DHT22;45074;52.764;6.896;2022-07-04T23:59:25;14.60;99.90
